sensor_id;sensor_type;location;lat;lon;timestamp;temperature;humidity
18611;DHT22;9435;52.122;5.502;2023-07-09T00:00:58;21.90;99.90
18611;DHT22;9435;52.122;5.502;2023-07-09T00:03:25;21.80;99.90
18611;DHT22;9435;52.122;5.502;2023-07-09T00:05:52;21.80;99.90
18611;DHT22;9435;52.122;5.502;2023-07-09T00:08:25;21.80;99.90
18611;DHT22;9435;52.122;5.502;2023-07-09T00:10:55;21.90;99.90
18611;DHT22;9435;52.122;5.502;2023-07-09T00:13:24;21.90;99.90
18611;DHT22;9435;52.122;5.502;2023-07-09T00:15:52;21.80;99.90
18611;DHT22;9435;52.122;5.502;2023-07-09T00:18:19;21.80;99.90
18611;DHT22;9435;52.122;5.502;2023-07-09T00:20:46;21.70;99.90
18611;DHT22;9435;52.122;5.502;2023-07-09T00:23:14;21.70;99.90
18611;DHT22;9435;52.122;5.502;2023-07-09T00:25:42;21.70;99.90
18611;DHT22;9435;52.122;5.502;2023-07-09T00:28:14;21.70;99.90
18611;DHT22;9435;52.122;5.502;2023-07-09T00:30:41;21.70;99.90
18611;DHT22;9435;52.122;5.502;2023-07-09T00:33:11;21.70;99.90
18611;DHT22;9435;52.122;5.502;2023-07-09T00:35:39;21.60;99.90
18611;DHT22;9435;52.122;5.502;2023-07-09T00:38:12;21.60;99.90
18611;DHT22;9435;52.122;5.502;2023-07-09T00:40:46;21.60;99.90
18611;DHT22;9435;52.122;5.502;2023-07-09T00:43:16;21.60;99.90
18611;DHT22;9435;52.122;5.502;2023-07-09T00:45:43;21.50;99.90
18611;DHT22;9435;52.122;5.502;2023-07-09T00:48:14;21.50;99.90
18611;DHT22;9435;52.122;5.502;2023-07-09T00:50:47;21.50;99.90
18611;DHT22;9435;52.122;5.502;2023-07-09T00:53:19;21.40;99.90
18611;DHT22;9435;52.122;5.502;2023-07-09T00:55:52;21.50;99.90
18611;DHT22;9435;52.122;5.502;2023-07-09T00:58:24;21.50;99.90
18611;DHT22;9435;52.122;5.502;2023-07-09T01:00:56;21.40;99.90
18611;DHT22;9435;52.122;5.502;2023-07-09T01:03:29;21.30;99.90
18611;DHT22;9435;52.122;5.502;2023-07-09T01:05:59;21.30;99.90
18611;DHT22;9435;52.122;5.502;2023-07-09T01:08:26;21.30;99.90
18611;DHT22;9435;52.122;5.502;2023-07-09T01:10:57;21.30;99.90
18611;DHT22;9435;52.122;5.502;2023-07-09T01:13:26;21.20;99.90
18611;DHT22;9435;52.122;5.502;2023-07-09T01:15:54;21.10;99.90
18611;DHT22;9435;52.122;5.502;2023-07-09T01:18:22;21.10;99.90
18611;DHT22;9435;52.122;5.502;2023-07-09T01:20:50;21.00;99.90
18611;DHT22;9435;52.122;5.502;2023-07-09T01:23:20;21.00;99.90
18611;DHT22;9435;52.122;5.502;2023-07-09T01:25:50;21.00;99.90
18611;DHT22;9435;52.122;5.502;2023-07-09T01:28:20;21.00;99.90
18611;DHT22;9435;52.122;5.502;2023-07-09T01:30:48;21.00;99.90
18611;DHT22;9435;52.122;5.502;2023-07-09T01:33:20;20.90;99.90
18611;DHT22;9435;52.122;5.502;2023-07-09T01:35:48;20.90;99.90
18611;DHT22;9435;52.122;5.502;2023-07-09T01:38:15;20.90;99.90
18611;DHT22;9435;52.122;5.502;2023-07-09T01:40:44;20.90;99.90
18611;DHT22;9435;52.122;5.502;2023-07-09T01:43:12;20.90;99.90
18611;DHT22;9435;52.122;5.502;2023-07-09T01:45:39;20.90;99.90
18611;DHT22;9435;52.122;5.502;2023-07-09T01:48:06;20.90;99.90
18611;DHT22;9435;52.122;5.502;2023-07-09T01:50:41;20.90;99.90
18611;DHT22;9435;52.122;5.502;2023-07-09T01:53:10;20.90;99.90
18611;DHT22;9435;52.122;5.502;2023-07-09T01:55:37;20.90;99.90
18611;DHT22;9435;52.122;5.502;2023-07-09T01:58:06;20.80;99.90
18611;DHT22;9435;52.122;5.502;2023-07-09T02:00:34;20.70;99.90
18611;DHT22;9435;52.122;5.502;2023-07-09T02:03:01;20.70;99.90
18611;DHT22;9435;52.122;5.502;2023-07-09T02:05:31;20.80;99.90
18611;DHT22;9435;52.122;5.502;2023-07-09T02:07:58;20.70;99.90
18611;DHT22;9435;52.122;5.502;2023-07-09T02:10:26;20.70;99.90
18611;DHT22;9435;52.122;5.502;2023-07-09T02:12:53;20.70;99.90
18611;DHT22;9435;52.122;5.502;2023-07-09T02:15:22;20.70;99.90
18611;DHT22;9435;52.122;5.502;2023-07-09T02:17:49;20.70;99.90
18611;DHT22;9435;52.122;5.502;2023-07-09T02:20:18;20.70;99.90
18611;DHT22;9435;52.122;5.502;2023-07-09T02:22:45;20.70;99.90
18611;DHT22;9435;52.122;5.502;2023-07-09T02:25:12;20.70;99.90
18611;DHT22;9435;52.122;5.502;2023-07-09T02:27:39;20.60;99.90
18611;DHT22;9435;52.122;5.502;2023-07-09T02:30:07;20.60;99.90
18611;DHT22;9435;52.122;5.502;2023-07-09T02:32:37;20.60;99.90
18611;DHT22;9435;52.122;5.502;2023-07-09T02:35:05;20.60;99.90
18611;DHT22;9435;52.122;5.502;2023-07-09T02:37:33;20.60;99.90
18611;DHT22;9435;52.122;5.502;2023-07-09T02:40:00;20.60;99.90
18611;DHT22;9435;52.122;5.502;2023-07-09T02:42:27;20.50;99.90
18611;DHT22;9435;52.122;5.502;2023-07-09T02:44:54;20.50;99.90
18611;DHT22;9435;52.122;5.502;2023-07-09T02:47:21;20.50;99.90
18611;DHT22;9435;52.122;5.502;2023-07-09T02:49:50;20.40;99.90
18611;DHT22;9435;52.122;5.502;2023-07-09T02:52:17;20.40;99.90
18611;DHT22;9435;52.122;5.502;2023-07-09T02:54:44;20.40;99.90
18611;DHT22;9435;52.122;5.502;2023-07-09T02:57:12;20.40;99.90
18611;DHT22;9435;52.122;5.502;2023-07-09T02:59:39;20.40;99.90
18611;DHT22;9435;52.122;5.502;2023-07-09T03:02:06;20.40;99.90
18611;DHT22;9435;52.122;5.502;2023-07-09T03:04:33;20.30;99.90
18611;DHT22;9435;52.122;5.502;2023-07-09T03:07:02;20.40;99.90
18611;DHT22;9435;52.122;5.502;2023-07-09T03:09:29;20.30;99.90
18611;DHT22;9435;52.122;5.502;2023-07-09T03:11:56;20.20;99.90
18611;DHT22;9435;52.122;5.502;2023-07-09T03:14:24;20.20;99.90
18611;DHT22;9435;52.122;5.502;2023-07-09T03:16:51;20.20;99.90
18611;DHT22;9435;52.122;5.502;2023-07-09T03:19:19;20.10;99.90
18611;DHT22;9435;52.122;5.502;2023-07-09T03:21:47;20.00;99.90
18611;DHT22;9435;52.122;5.502;2023-07-09T03:24:15;20.00;99.90
18611;DHT22;9435;52.122;5.502;2023-07-09T03:26:44;20.00;99.90
18611;DHT22;9435;52.122;5.502;2023-07-09T03:29:11;20.00;99.90
18611;DHT22;9435;52.122;5.502;2023-07-09T03:31:39;20.00;99.90
18611;DHT22;9435;52.122;5.502;2023-07-09T03:34:06;20.00;99.90
18611;DHT22;9435;52.122;5.502;2023-07-09T03:36:33;20.00;99.90
18611;DHT22;9435;52.122;5.502;2023-07-09T03:39:03;20.00;99.90
18611;DHT22;9435;52.122;5.502;2023-07-09T03:41:31;20.00;99.90
18611;DHT22;9435;52.122;5.502;2023-07-09T03:43:58;19.90;99.90
18611;DHT22;9435;52.122;5.502;2023-07-09T03:46:25;19.80;99.90
18611;DHT22;9435;52.122;5.502;2023-07-09T03:48:52;19.80;99.90
18611;DHT22;9435;52.122;5.502;2023-07-09T03:51:20;19.80;99.90
18611;DHT22;9435;52.122;5.502;2023-07-09T03:53:47;19.80;99.90
18611;DHT22;9435;52.122;5.502;2023-07-09T03:56:14;19.90;99.90
18611;DHT22;9435;52.122;5.502;2023-07-09T03:58:42;19.80;99.90
18611;DHT22;9435;52.122;5.502;2023-07-09T04:01:09;19.80;99.90
18611;DHT22;9435;52.122;5.502;2023-07-09T04:03:37;19.80;99.90
18611;DHT22;9435;52.122;5.502;2023-07-09T04:06:04;19.70;99.90
18611;DHT22;9435;52.122;5.502;2023-07-09T04:08:31;19.70;99.90
18611;DHT22;9435;52.122;5.502;2023-07-09T04:10:59;19.70;99.90
18611;DHT22;9435;52.122;5.502;2023-07-09T04:13:26;19.70;99.90
18611;DHT22;9435;52.122;5.502;2023-07-09T04:15:55;19.70;99.90
18611;DHT22;9435;52.122;5.502;2023-07-09T04:18:22;19.70;99.90
18611;DHT22;9435;52.122;5.502;2023-07-09T04:20:50;19.70;99.90
18611;DHT22;9435;52.122;5.502;2023-07-09T04:23:18;19.80;99.90
18611;DHT22;9435;52.122;5.502;2023-07-09T04:25:45;19.90;99.90
18611;DHT22;9435;52.122;5.502;2023-07-09T04:28:13;19.90;99.90
18611;DHT22;9435;52.122;5.502;2023-07-09T04:30:46;19.90;99.90
18611;DHT22;9435;52.122;5.502;2023-07-09T04:33:15;20.00;99.90
18611;DHT22;9435;52.122;5.502;2023-07-09T04:35:44;20.10;99.90
18611;DHT22;9435;52.122;5.502;2023-07-09T04:38:11;20.10;99.90
18611;DHT22;9435;52.122;5.502;2023-07-09T04:40:39;20.20;99.90
18611;DHT22;9435;52.122;5.502;2023-07-09T04:43:06;20.20;99.90
18611;DHT22;9435;52.122;5.502;2023-07-09T04:45:33;20.30;99.90
18611;DHT22;9435;52.122;5.502;2023-07-09T04:48:01;20.30;99.90
18611;DHT22;9435;52.122;5.502;2023-07-09T04:50:29;20.40;99.90
18611;DHT22;9435;52.122;5.502;2023-07-09T04:52:57;20.40;99.90
18611;DHT22;9435;52.122;5.502;2023-07-09T04:55:25;20.40;99.90
18611;DHT22;9435;52.122;5.502;2023-07-09T04:57:52;20.50;99.90
18611;DHT22;9435;52.122;5.502;2023-07-09T05:00:20;20.40;99.90
18611;DHT22;9435;52.122;5.502;2023-07-09T05:02:47;20.50;99.90
18611;DHT22;9435;52.122;5.502;2023-07-09T05:05:15;20.60;99.90
18611;DHT22;9435;52.122;5.502;2023-07-09T05:07:44;20.60;99.90
18611;DHT22;9435;52.122;5.502;2023-07-09T05:10:11;20.70;99.90
18611;DHT22;9435;52.122;5.502;2023-07-09T05:12:48;20.80;99.90
18611;DHT22;9435;52.122;5.502;2023-07-09T05:15:16;20.80;99.90
18611;DHT22;9435;52.122;5.502;2023-07-09T05:17:44;20.90;99.90
18611;DHT22;9435;52.122;5.502;2023-07-09T05:20:11;21.00;99.90
18611;DHT22;9435;52.122;5.502;2023-07-09T05:22:39;21.00;99.90
18611;DHT22;9435;52.122;5.502;2023-07-09T05:25:08;21.10;99.90
18611;DHT22;9435;52.122;5.502;2023-07-09T05:27:35;21.10;99.90
18611;DHT22;9435;52.122;5.502;2023-07-09T05:30:03;21.20;99.90
18611;DHT22;9435;52.122;5.502;2023-07-09T05:32:30;21.30;99.90
18611;DHT22;9435;52.122;5.502;2023-07-09T05:34:57;21.40;99.90
18611;DHT22;9435;52.122;5.502;2023-07-09T05:37:24;21.50;99.90
18611;DHT22;9435;52.122;5.502;2023-07-09T05:39:51;21.60;99.90
18611;DHT22;9435;52.122;5.502;2023-07-09T05:42:20;21.80;99.90
18611;DHT22;9435;52.122;5.502;2023-07-09T05:44:47;21.90;99.90
18611;DHT22;9435;52.122;5.502;2023-07-09T05:47:14;22.00;99.90
18611;DHT22;9435;52.122;5.502;2023-07-09T05:49:41;22.20;99.90
18611;DHT22;9435;52.122;5.502;2023-07-09T05:52:09;22.30;99.90
18611;DHT22;9435;52.122;5.502;2023-07-09T05:54:36;22.50;99.90
18611;DHT22;9435;52.122;5.502;2023-07-09T05:57:03;22.60;99.90
18611;DHT22;9435;52.122;5.502;2023-07-09T05:59:32;22.80;99.90
18611;DHT22;9435;52.122;5.502;2023-07-09T06:01:59;23.00;99.90
18611;DHT22;9435;52.122;5.502;2023-07-09T06:04:26;23.20;99.90
18611;DHT22;9435;52.122;5.502;2023-07-09T06:06:53;23.40;99.90
18611;DHT22;9435;52.122;5.502;2023-07-09T06:09:21;23.70;99.90
18611;DHT22;9435;52.122;5.502;2023-07-09T06:11:48;23.80;99.90
18611;DHT22;9435;52.122;5.502;2023-07-09T06:14:16;24.00;99.90
18611;DHT22;9435;52.122;5.502;2023-07-09T06:16:45;24.10;99.90
18611;DHT22;9435;52.122;5.502;2023-07-09T06:19:12;24.10;99.90
18611;DHT22;9435;52.122;5.502;2023-07-09T06:21:40;24.30;99.90
18611;DHT22;9435;52.122;5.502;2023-07-09T06:24:13;24.40;99.90
18611;DHT22;9435;52.122;5.502;2023-07-09T06:26:40;24.60;99.90
18611;DHT22;9435;52.122;5.502;2023-07-09T06:29:07;24.70;99.90
18611;DHT22;9435;52.122;5.502;2023-07-09T06:31:35;24.80;99.90
18611;DHT22;9435;52.122;5.502;2023-07-09T06:34:04;24.90;99.90
18611;DHT22;9435;52.122;5.502;2023-07-09T06:36:33;25.20;99.90
18611;DHT22;9435;52.122;5.502;2023-07-09T06:39:00;25.40;99.90
18611;DHT22;9435;52.122;5.502;2023-07-09T06:41:27;25.70;99.90
18611;DHT22;9435;52.122;5.502;2023-07-09T06:43:54;25.90;99.90
18611;DHT22;9435;52.122;5.502;2023-07-09T06:46:22;26.00;99.90
18611;DHT22;9435;52.122;5.502;2023-07-09T06:48:49;26.20;99.90
18611;DHT22;9435;52.122;5.502;2023-07-09T06:51:18;26.30;99.90
18611;DHT22;9435;52.122;5.502;2023-07-09T06:53:45;26.50;99.90
18611;DHT22;9435;52.122;5.502;2023-07-09T06:56:16;26.80;99.90
18611;DHT22;9435;52.122;5.502;2023-07-09T06:58:43;27.00;99.90
18611;DHT22;9435;52.122;5.502;2023-07-09T07:01:12;27.10;99.90
18611;DHT22;9435;52.122;5.502;2023-07-09T07:03:39;27.20;99.90
18611;DHT22;9435;52.122;5.502;2023-07-09T07:06:06;27.40;99.90
18611;DHT22;9435;52.122;5.502;2023-07-09T07:08:36;27.70;99.90
18611;DHT22;9435;52.122;5.502;2023-07-09T07:11:04;27.80;99.90
18611;DHT22;9435;52.122;5.502;2023-07-09T07:13:34;27.90;99.90
18611;DHT22;9435;52.122;5.502;2023-07-09T07:16:01;28.00;99.90
18611;DHT22;9435;52.122;5.502;2023-07-09T07:18:31;28.20;99.90
18611;DHT22;9435;52.122;5.502;2023-07-09T07:20:59;28.50;99.90
18611;DHT22;9435;52.122;5.502;2023-07-09T07:23:27;28.70;99.90
18611;DHT22;9435;52.122;5.502;2023-07-09T07:25:56;28.80;99.90
18611;DHT22;9435;52.122;5.502;2023-07-09T07:28:23;29.00;99.90
18611;DHT22;9435;52.122;5.502;2023-07-09T07:30:58;29.10;99.90
18611;DHT22;9435;52.122;5.502;2023-07-09T07:33:25;29.20;99.90
18611;DHT22;9435;52.122;5.502;2023-07-09T07:35:52;29.20;99.90
18611;DHT22;9435;52.122;5.502;2023-07-09T07:38:20;29.10;99.90
18611;DHT22;9435;52.122;5.502;2023-07-09T07:40:47;29.40;99.90
18611;DHT22;9435;52.122;5.502;2023-07-09T07:43:15;29.40;99.90
18611;DHT22;9435;52.122;5.502;2023-07-09T07:45:43;29.40;99.90
18611;DHT22;9435;52.122;5.502;2023-07-09T07:48:11;29.40;99.90
18611;DHT22;9435;52.122;5.502;2023-07-09T07:50:38;29.70;99.90
18611;DHT22;9435;52.122;5.502;2023-07-09T07:53:06;30.00;99.90
18611;DHT22;9435;52.122;5.502;2023-07-09T07:55:34;30.20;99.90
18611;DHT22;9435;52.122;5.502;2023-07-09T07:58:03;30.40;99.90
18611;DHT22;9435;52.122;5.502;2023-07-09T08:00:33;30.40;99.90
18611;DHT22;9435;52.122;5.502;2023-07-09T08:03:01;30.50;99.90
18611;DHT22;9435;52.122;5.502;2023-07-09T08:05:28;30.70;99.90
18611;DHT22;9435;52.122;5.502;2023-07-09T08:07:55;30.60;99.90
18611;DHT22;9435;52.122;5.502;2023-07-09T08:10:23;30.60;99.90
18611;DHT22;9435;52.122;5.502;2023-07-09T08:12:50;30.50;99.90
18611;DHT22;9435;52.122;5.502;2023-07-09T08:15:22;30.60;99.90
18611;DHT22;9435;52.122;5.502;2023-07-09T08:17:51;31.10;99.90
18611;DHT22;9435;52.122;5.502;2023-07-09T08:20:18;31.20;99.90
18611;DHT22;9435;52.122;5.502;2023-07-09T08:22:45;31.30;99.90
18611;DHT22;9435;52.122;5.502;2023-07-09T08:25:13;31.30;99.90
18611;DHT22;9435;52.122;5.502;2023-07-09T08:27:40;31.40;99.90
18611;DHT22;9435;52.122;5.502;2023-07-09T08:30:08;31.50;99.90
18611;DHT22;9435;52.122;5.502;2023-07-09T08:32:36;31.90;99.90
18611;DHT22;9435;52.122;5.502;2023-07-09T08:35:05;32.00;99.90
18611;DHT22;9435;52.122;5.502;2023-07-09T08:37:32;32.20;99.90
18611;DHT22;9435;52.122;5.502;2023-07-09T08:39:59;32.40;99.90
18611;DHT22;9435;52.122;5.502;2023-07-09T08:42:33;32.50;99.90
18611;DHT22;9435;52.122;5.502;2023-07-09T08:45:16;32.60;99.90
18611;DHT22;9435;52.122;5.502;2023-07-09T08:47:54;32.10;99.90
18611;DHT22;9435;52.122;5.502;2023-07-09T08:50:32;31.80;99.90
18611;DHT22;9435;52.122;5.502;2023-07-09T08:53:01;32.30;99.90
18611;DHT22;9435;52.122;5.502;2023-07-09T08:55:29;32.60;99.90
18611;DHT22;9435;52.122;5.502;2023-07-09T08:58:10;32.70;99.90
18611;DHT22;9435;52.122;5.502;2023-07-09T09:00:43;33.10;99.90
18611;DHT22;9435;52.122;5.502;2023-07-09T09:03:16;33.00;99.90
18611;DHT22;9435;52.122;5.502;2023-07-09T09:05:50;33.10;99.90
18611;DHT22;9435;52.122;5.502;2023-07-09T09:08:28;33.20;99.90
18611;DHT22;9435;52.122;5.502;2023-07-09T09:11:06;33.30;99.90
18611;DHT22;9435;52.122;5.502;2023-07-09T09:13:36;33.10;99.90
18611;DHT22;9435;52.122;5.502;2023-07-09T09:16:09;33.20;99.90
18611;DHT22;9435;52.122;5.502;2023-07-09T09:18:41;33.40;99.90
18611;DHT22;9435;52.122;5.502;2023-07-09T09:21:15;33.60;99.90
18611;DHT22;9435;52.122;5.502;2023-07-09T09:23:48;33.70;99.90
18611;DHT22;9435;52.122;5.502;2023-07-09T09:26:24;33.60;99.90
18611;DHT22;9435;52.122;5.502;2023-07-09T09:28:53;33.90;99.90
18611;DHT22;9435;52.122;5.502;2023-07-09T09:31:21;34.00;99.90
18611;DHT22;9435;52.122;5.502;2023-07-09T09:33:49;34.00;99.90
18611;DHT22;9435;52.122;5.502;2023-07-09T09:36:21;34.10;99.90
18611;DHT22;9435;52.122;5.502;2023-07-09T09:38:49;33.80;99.90
18611;DHT22;9435;52.122;5.502;2023-07-09T09:41:19;33.70;99.90
18611;DHT22;9435;52.122;5.502;2023-07-09T09:43:47;34.00;99.90
18611;DHT22;9435;52.122;5.502;2023-07-09T09:46:18;34.30;99.90
18611;DHT22;9435;52.122;5.502;2023-07-09T09:48:47;34.20;99.90
18611;DHT22;9435;52.122;5.502;2023-07-09T09:51:16;34.20;99.90
18611;DHT22;9435;52.122;5.502;2023-07-09T09:53:48;34.30;99.90
18611;DHT22;9435;52.122;5.502;2023-07-09T09:56:19;34.00;99.90
18611;DHT22;9435;52.122;5.502;2023-07-09T09:58:52;34.00;99.90
18611;DHT22;9435;52.122;5.502;2023-07-09T10:01:25;34.20;99.90
18611;DHT22;9435;52.122;5.502;2023-07-09T10:03:56;34.50;99.90
18611;DHT22;9435;52.122;5.502;2023-07-09T10:06:34;34.40;99.90
18611;DHT22;9435;52.122;5.502;2023-07-09T10:09:09;34.40;99.90
18611;DHT22;9435;52.122;5.502;2023-07-09T10:11:46;34.50;99.90
18611;DHT22;9435;52.122;5.502;2023-07-09T10:14:30;34.80;99.90
18611;DHT22;9435;52.122;5.502;2023-07-09T10:17:03;34.80;99.90
18611;DHT22;9435;52.122;5.502;2023-07-09T10:19:37;34.70;99.90
18611;DHT22;9435;52.122;5.502;2023-07-09T10:22:10;34.70;99.90
18611;DHT22;9435;52.122;5.502;2023-07-09T10:24:51;34.80;99.90
18611;DHT22;9435;52.122;5.502;2023-07-09T10:27:28;34.70;99.90
18611;DHT22;9435;52.122;5.502;2023-07-09T10:32:54;34.40;99.90
18611;DHT22;9435;52.122;5.502;2023-07-09T10:35:28;34.50;99.90
18611;DHT22;9435;52.122;5.502;2023-07-09T10:38:11;34.80;99.90
18611;DHT22;9435;52.122;5.502;2023-07-09T10:40:46;34.80;99.90
18611;DHT22;9435;52.122;5.502;2023-07-09T10:43:18;35.00;99.90
18611;DHT22;9435;52.122;5.502;2023-07-09T10:45:51;34.80;99.90
18611;DHT22;9435;52.122;5.502;2023-07-09T10:48:34;34.90;99.90
18611;DHT22;9435;52.122;5.502;2023-07-09T10:51:02;34.90;99.90
18611;DHT22;9435;52.122;5.502;2023-07-09T10:53:37;35.20;99.90
18611;DHT22;9435;52.122;5.502;2023-07-09T10:56:11;35.30;99.90
18611;DHT22;9435;52.122;5.502;2023-07-09T10:58:43;35.70;99.90
18611;DHT22;9435;52.122;5.502;2023-07-09T11:01:14;35.60;99.90
18611;DHT22;9435;52.122;5.502;2023-07-09T11:03:44;35.70;99.90
18611;DHT22;9435;52.122;5.502;2023-07-09T11:06:19;36.00;99.90
18611;DHT22;9435;52.122;5.502;2023-07-09T11:08:50;36.20;99.90
18611;DHT22;9435;52.122;5.502;2023-07-09T11:11:28;35.80;99.90
18611;DHT22;9435;52.122;5.502;2023-07-09T11:14:01;35.90;99.90
18611;DHT22;9435;52.122;5.502;2023-07-09T11:16:34;35.60;99.90
18611;DHT22;9435;52.122;5.502;2023-07-09T11:19:05;35.70;99.90
18611;DHT22;9435;52.122;5.502;2023-07-09T11:21:44;35.40;99.90
18611;DHT22;9435;52.122;5.502;2023-07-09T11:24:30;35.50;99.90
18611;DHT22;9435;52.122;5.502;2023-07-09T11:26:59;35.60;99.90
18611;DHT22;9435;52.122;5.502;2023-07-09T11:29:27;35.10;99.90
18611;DHT22;9435;52.122;5.502;2023-07-09T11:32:06;34.70;99.90
18611;DHT22;9435;52.122;5.502;2023-07-09T11:34:33;34.70;99.90
18611;DHT22;9435;52.122;5.502;2023-07-09T11:37:01;34.60;99.90
18611;DHT22;9435;52.122;5.502;2023-07-09T11:39:30;34.50;99.90
18611;DHT22;9435;52.122;5.502;2023-07-09T11:42:00;34.70;99.90
18611;DHT22;9435;52.122;5.502;2023-07-09T11:44:28;34.80;99.90
18611;DHT22;9435;52.122;5.502;2023-07-09T11:47:04;34.90;99.90
18611;DHT22;9435;52.122;5.502;2023-07-09T11:49:45;34.50;99.90
18611;DHT22;9435;52.122;5.502;2023-07-09T11:52:15;34.50;99.90
18611;DHT22;9435;52.122;5.502;2023-07-09T11:54:45;34.60;99.90
18611;DHT22;9435;52.122;5.502;2023-07-09T11:57:13;34.50;99.90
18611;DHT22;9435;52.122;5.502;2023-07-09T11:59:41;34.40;99.90
18611;DHT22;9435;52.122;5.502;2023-07-09T12:02:16;34.40;99.90
18611;DHT22;9435;52.122;5.502;2023-07-09T12:04:44;34.50;99.90
18611;DHT22;9435;52.122;5.502;2023-07-09T12:07:15;34.60;99.90
18611;DHT22;9435;52.122;5.502;2023-07-09T12:09:48;34.50;99.90
18611;DHT22;9435;52.122;5.502;2023-07-09T12:12:20;34.20;99.90
18611;DHT22;9435;52.122;5.502;2023-07-09T12:14:48;33.90;99.90
18611;DHT22;9435;52.122;5.502;2023-07-09T12:17:16;34.00;99.90
18611;DHT22;9435;52.122;5.502;2023-07-09T12:19:43;34.00;99.90
18611;DHT22;9435;52.122;5.502;2023-07-09T12:22:16;33.80;99.90
18611;DHT22;9435;52.122;5.502;2023-07-09T12:24:46;33.60;99.90
18611;DHT22;9435;52.122;5.502;2023-07-09T12:27:20;33.40;99.90
18611;DHT22;9435;52.122;5.502;2023-07-09T12:29:52;33.40;99.90
18611;DHT22;9435;52.122;5.502;2023-07-09T12:32:20;33.40;99.90
18611;DHT22;9435;52.122;5.502;2023-07-09T12:34:50;33.50;99.90
18611;DHT22;9435;52.122;5.502;2023-07-09T12:37:19;33.10;99.90
18611;DHT22;9435;52.122;5.502;2023-07-09T12:39:49;33.10;99.90
18611;DHT22;9435;52.122;5.502;2023-07-09T12:42:24;33.20;99.90
18611;DHT22;9435;52.122;5.502;2023-07-09T12:44:54;33.30;99.90
18611;DHT22;9435;52.122;5.502;2023-07-09T12:47:24;33.40;99.90
18611;DHT22;9435;52.122;5.502;2023-07-09T12:49:51;33.10;99.90
18611;DHT22;9435;52.122;5.502;2023-07-09T12:52:26;32.90;99.90
18611;DHT22;9435;52.122;5.502;2023-07-09T12:54:57;32.90;99.90
18611;DHT22;9435;52.122;5.502;2023-07-09T12:57:26;32.30;99.90
18611;DHT22;9435;52.122;5.502;2023-07-09T12:59:55;32.20;99.90
18611;DHT22;9435;52.122;5.502;2023-07-09T13:02:24;31.70;99.90
18611;DHT22;9435;52.122;5.502;2023-07-09T13:05:01;31.40;99.90
18611;DHT22;9435;52.122;5.502;2023-07-09T13:07:32;31.50;99.90
18611;DHT22;9435;52.122;5.502;2023-07-09T13:10:07;31.60;99.90
18611;DHT22;9435;52.122;5.502;2023-07-09T13:12:45;31.40;99.90
18611;DHT22;9435;52.122;5.502;2023-07-09T13:15:27;31.40;99.90
18611;DHT22;9435;52.122;5.502;2023-07-09T13:18:00;31.40;99.90
18611;DHT22;9435;52.122;5.502;2023-07-09T13:20:28;31.40;99.90
18611;DHT22;9435;52.122;5.502;2023-07-09T13:22:57;31.50;99.90
18611;DHT22;9435;52.122;5.502;2023-07-09T13:25:24;31.20;99.90
18611;DHT22;9435;52.122;5.502;2023-07-09T13:27:53;31.30;99.90
18611;DHT22;9435;52.122;5.502;2023-07-09T13:30:21;31.30;99.90
18611;DHT22;9435;52.122;5.502;2023-07-09T13:32:48;31.50;99.90
18611;DHT22;9435;52.122;5.502;2023-07-09T13:35:19;31.40;99.90
18611;DHT22;9435;52.122;5.502;2023-07-09T13:37:47;31.40;99.90
18611;DHT22;9435;52.122;5.502;2023-07-09T13:40:15;31.30;99.90
18611;DHT22;9435;52.122;5.502;2023-07-09T13:42:43;31.30;99.90
18611;DHT22;9435;52.122;5.502;2023-07-09T13:45:19;30.80;99.90
18611;DHT22;9435;52.122;5.502;2023-07-09T13:47:46;30.70;99.90
18611;DHT22;9435;52.122;5.502;2023-07-09T13:50:14;30.30;99.90
18611;DHT22;9435;52.122;5.502;2023-07-09T13:52:42;30.40;99.90
18611;DHT22;9435;52.122;5.502;2023-07-09T13:55:17;30.30;99.90
18611;DHT22;9435;52.122;5.502;2023-07-09T13:57:45;29.90;99.90
18611;DHT22;9435;52.122;5.502;2023-07-09T14:00:13;29.70;99.90
18611;DHT22;9435;52.122;5.502;2023-07-09T14:02:42;29.60;99.90
18611;DHT22;9435;52.122;5.502;2023-07-09T14:05:11;29.50;99.90
18611;DHT22;9435;52.122;5.502;2023-07-09T14:07:40;29.40;99.90
18611;DHT22;9435;52.122;5.502;2023-07-09T14:10:11;29.20;99.90
18611;DHT22;9435;52.122;5.502;2023-07-09T14:12:43;29.10;99.90
18611;DHT22;9435;52.122;5.502;2023-07-09T14:15:15;29.00;99.90
18611;DHT22;9435;52.122;5.502;2023-07-09T14:17:44;28.70;99.90
18611;DHT22;9435;52.122;5.502;2023-07-09T14:20:13;28.70;99.90
18611;DHT22;9435;52.122;5.502;2023-07-09T14:22:41;28.30;99.90
18611;DHT22;9435;52.122;5.502;2023-07-09T14:25:16;28.00;99.90
18611;DHT22;9435;52.122;5.502;2023-07-09T14:27:44;27.70;99.90
18611;DHT22;9435;52.122;5.502;2023-07-09T14:30:14;27.40;99.90
18611;DHT22;9435;52.122;5.502;2023-07-09T14:32:44;27.40;99.90
18611;DHT22;9435;52.122;5.502;2023-07-09T14:35:15;27.00;99.90
18611;DHT22;9435;52.122;5.502;2023-07-09T14:37:43;26.90;99.90
18611;DHT22;9435;52.122;5.502;2023-07-09T14:40:11;26.60;99.90
18611;DHT22;9435;52.122;5.502;2023-07-09T14:42:38;26.40;99.90
18611;DHT22;9435;52.122;5.502;2023-07-09T14:45:16;26.20;99.90
18611;DHT22;9435;52.122;5.502;2023-07-09T14:47:46;25.80;99.90
18611;DHT22;9435;52.122;5.502;2023-07-09T14:50:13;25.70;99.90
18611;DHT22;9435;52.122;5.502;2023-07-09T14:52:42;25.60;99.90
18611;DHT22;9435;52.122;5.502;2023-07-09T14:55:14;25.60;99.90
18611;DHT22;9435;52.122;5.502;2023-07-09T14:57:42;25.50;99.90
18611;DHT22;9435;52.122;5.502;2023-07-09T15:00:14;25.30;99.90
18611;DHT22;9435;52.122;5.502;2023-07-09T15:02:42;25.00;99.90
18611;DHT22;9435;52.122;5.502;2023-07-09T15:05:16;24.70;99.90
18611;DHT22;9435;52.122;5.502;2023-07-09T15:07:43;24.50;99.90
18611;DHT22;9435;52.122;5.502;2023-07-09T15:10:15;23.80;99.90
18611;DHT22;9435;52.122;5.502;2023-07-09T15:12:43;23.60;99.90
18611;DHT22;9435;52.122;5.502;2023-07-09T15:15:20;23.90;99.90
18611;DHT22;9435;52.122;5.502;2023-07-09T15:17:49;24.00;99.90
18611;DHT22;9435;52.122;5.502;2023-07-09T15:20:20;24.20;99.90
18611;DHT22;9435;52.122;5.502;2023-07-09T15:22:50;24.30;99.90
18611;DHT22;9435;52.122;5.502;2023-07-09T15:25:20;24.20;99.90
18611;DHT22;9435;52.122;5.502;2023-07-09T15:27:47;24.30;99.90
18611;DHT22;9435;52.122;5.502;2023-07-09T15:30:16;24.40;99.90
18611;DHT22;9435;52.122;5.502;2023-07-09T15:32:46;24.40;99.90
18611;DHT22;9435;52.122;5.502;2023-07-09T15:35:14;24.50;99.90
18611;DHT22;9435;52.122;5.502;2023-07-09T15:37:42;24.60;99.90
18611;DHT22;9435;52.122;5.502;2023-07-09T15:40:17;24.60;99.90
18611;DHT22;9435;52.122;5.502;2023-07-09T15:42:45;24.70;99.90
18611;DHT22;9435;52.122;5.502;2023-07-09T15:45:14;24.80;99.90
18611;DHT22;9435;52.122;5.502;2023-07-09T15:47:42;24.50;99.90
18611;DHT22;9435;52.122;5.502;2023-07-09T15:50:17;24.20;99.90
18611;DHT22;9435;52.122;5.502;2023-07-09T15:52:46;24.20;99.90
18611;DHT22;9435;52.122;5.502;2023-07-09T15:55:14;24.10;99.90
18611;DHT22;9435;52.122;5.502;2023-07-09T15:57:43;23.90;99.90
18611;DHT22;9435;52.122;5.502;2023-07-09T16:00:16;23.80;99.90
18611;DHT22;9435;52.122;5.502;2023-07-09T16:02:44;23.70;99.90